createdAt,value
2019-04-20T00:00:58.531Z,100.00
2019-04-20T00:03:35.509Z,100.00
2019-04-20T00:06:01.343Z,100.00
2019-04-20T00:08:36.115Z,100.00
2019-04-20T00:11:10.549Z,100.00
2019-04-20T00:13:47.640Z,100.00
2019-04-20T00:16:08.407Z,100.00
2019-04-20T00:18:43.167Z,100.00
2019-04-20T00:21:29.087Z,100.00
2019-04-20T00:24:09.233Z,100.00
2019-04-20T00:29:29.708Z,100.00
2019-04-20T00:31:53.213Z,100.00
2019-04-20T00:34:21.281Z,100.00
2019-04-20T00:36:45.368Z,100.00
2019-04-20T00:39:17.161Z,100.00
2019-04-20T00:41:53.701Z,100.00
2019-04-20T00:44:23.321Z,100.00
2019-04-20T00:47:05.883Z,100.00
2019-04-20T00:49:34.896Z,100.00
2019-04-20T00:52:26.508Z,100.00
2019-04-20T00:54:26.354Z,100.00
2019-04-20T00:57:09.370Z,100.00
2019-04-20T00:59:42.923Z,100.00
2019-04-20T01:02:18.017Z,100.00
2019-04-20T01:04:56.586Z,100.00
2019-04-20T01:07:20.286Z,100.00
2019-04-20T01:09:58.378Z,100.00
2019-04-20T01:12:31.924Z,100.00
2019-04-20T01:15:05.578Z,100.00
2019-04-20T01:17:34.048Z,100.00
2019-04-20T01:20:03.968Z,100.00
2019-04-20T01:22:40.277Z,100.00
2019-04-20T01:25:14.136Z,100.00
2019-04-20T01:27:51.251Z,100.00
2019-04-20T01:30:17.216Z,100.00
2019-04-20T01:32:55.076Z,100.00
2019-04-20T01:35:31.999Z,100.00
2019-04-20T01:38:00.277Z,100.00
2019-04-20T01:40:16.988Z,100.00
2019-04-20T01:42:46.914Z,100.00
2019-04-20T01:45:22.433Z,100.00
2019-04-20T01:47:53.076Z,100.00
2019-04-20T01:50:24.744Z,100.00
2019-04-20T01:53:01.528Z,100.00
2019-04-20T01:55:55.576Z,100.00
2019-04-20T01:58:17.496Z,100.00
2019-04-20T02:01:00.789Z,100.00
2019-04-20T02:03:48.478Z,100.00
2019-04-20T02:06:18.835Z,100.00
2019-04-20T02:08:52.821Z,100.00
2019-04-20T02:11:26.069Z,100.00
2019-04-20T02:13:56.340Z,100.00
2019-04-20T02:16:28.920Z,100.00
2019-04-20T02:19:10.693Z,100.00
2019-04-20T02:21:42.224Z,100.00
2019-04-20T02:24:02.318Z,100.00
2019-04-20T02:26:28.240Z,100.00
2019-04-20T02:29:29.527Z,100.00
2019-04-20T02:32:12.060Z,100.00
2019-04-20T02:40:42.291Z,100.00
2019-04-20T02:45:33.591Z,100.00
2019-04-20T02:48:00.854Z,100.00
2019-04-20T02:50:36.168Z,100.00
2019-04-20T02:53:11.442Z,100.00
2019-04-20T02:55:31.709Z,100.00
2019-04-20T03:00:31.360Z,100.00
2019-04-20T03:02:53.086Z,100.00
2019-04-20T03:05:25.647Z,100.00
2019-04-20T03:08:04.324Z,100.00
2019-04-20T03:10:43.008Z,100.00
2019-04-20T03:13:08.045Z,100.00
2019-04-20T03:15:38.296Z,100.00
2019-04-20T03:18:12.118Z,100.00
2019-04-20T03:20:43.434Z,100.00
2019-04-20T03:23:23.491Z,100.00
2019-04-20T03:26:11.038Z,100.00
2019-04-20T03:28:53.909Z,100.00
2019-04-20T03:34:27.515Z,100.00
2019-04-20T03:36:41.534Z,100.00
2019-04-20T03:39:07.014Z,100.00
2019-04-20T03:41:25.376Z,100.00
2019-04-20T03:43:49.742Z,100.00
2019-04-20T03:46:30.076Z,100.00
2019-04-20T03:49:10.677Z,100.00
2019-04-20T03:51:47.205Z,100.00
2019-04-20T03:54:18.519Z,100.00
2019-04-20T03:57:12.475Z,100.00
2019-04-20T03:59:41.288Z,100.00
2019-04-20T04:02:52.807Z,100.00
2019-04-20T04:05:22.236Z,100.00
2019-04-20T04:07:41.476Z,100.00
2019-04-20T04:10:22.007Z,100.00
2019-04-20T04:13:14.849Z,100.00
2019-04-20T04:15:52.221Z,100.00
2019-04-20T04:18:26.009Z,100.00
2019-04-20T04:20:58.631Z,100.00
2019-04-20T04:23:40.408Z,100.00
2019-04-20T04:26:08.502Z,100.00
2019-04-20T04:28:42.355Z,100.00
2019-04-20T04:31:16.389Z,100.00
2019-04-20T04:36:15.330Z,100.00
2019-04-20T04:38:53.335Z,100.00
2019-04-20T04:41:22.899Z,100.00
2019-04-20T04:43:55.234Z,100.00
2019-04-20T04:46:05.971Z,100.00
2019-04-20T04:48:41.154Z,100.00
2019-04-20T04:51:14.928Z,100.00
2019-04-20T04:53:47.900Z,100.00
2019-04-20T04:56:15.157Z,100.00
2019-04-20T04:58:42.784Z,100.00
2019-04-20T05:01:18.558Z,100.00
2019-04-20T05:04:13.057Z,100.00
2019-04-20T05:06:35.552Z,100.00
2019-04-20T05:08:55.001Z,100.00
2019-04-20T05:11:22.072Z,100.00
2019-04-20T05:13:58.598Z,100.00
2019-04-20T05:16:40.965Z,100.00
2019-04-20T05:19:18.782Z,100.00
2019-04-20T05:22:05.408Z,100.00
2019-04-20T05:24:39.078Z,100.00
2019-04-20T05:27:54.718Z,100.00
2019-04-20T05:30:01.321Z,100.00
2019-04-20T05:32:42.799Z,100.00
2019-04-20T05:35:26.892Z,100.00
2019-04-20T05:38:02.654Z,100.00
2019-04-20T05:40:26.234Z,100.00
2019-04-20T05:43:03.147Z,100.00
2019-04-20T05:45:31.163Z,100.00
2019-04-20T05:48:05.139Z,100.00
2019-04-20T05:50:36.569Z,100.00
2019-04-20T05:53:12.967Z,100.00
2019-04-20T05:55:43.256Z,100.00
2019-04-20T05:58:17.801Z,100.00
2019-04-20T06:00:57.434Z,100.00
2019-04-20T06:03:19.041Z,100.00
2019-04-20T06:05:59.269Z,100.00
2019-04-20T06:08:32.028Z,100.00
2019-04-20T06:10:56.482Z,100.00
2019-04-20T06:13:22.903Z,100.00
2019-04-20T06:16:07.348Z,100.00
2019-04-20T06:18:44.467Z,94.60
2019-04-20T06:21:35.386Z,90.24
2019-04-20T06:24:03.791Z,87.44
2019-04-20T06:26:49.056Z,82.47
2019-04-20T06:29:10.199Z,75.40
2019-04-20T06:31:48.655Z,68.42
2019-04-20T06:36:57.181Z,64.45
2019-04-20T06:42:10.824Z,60.02
2019-04-20T06:44:34.380Z,57.59
2019-04-20T06:47:16.179Z,56.44
2019-04-20T06:49:53.806Z,54.54
2019-04-20T06:52:25.890Z,52.67
2019-04-20T06:55:05.182Z,67.37
2019-04-20T07:00:22.950Z,89.21
2019-04-20T07:05:21.101Z,83.94
2019-04-20T07:07:51.526Z,78.27
2019-04-20T07:10:28.629Z,81.05
2019-04-20T07:12:52.499Z,79.61
2019-04-20T07:15:23.165Z,57.53
2019-04-20T07:18:03.221Z,51.51
2019-04-20T07:20:52.604Z,58.63
2019-04-20T07:23:22.354Z,55.31
2019-04-20T07:25:49.045Z,44.84
2019-04-20T07:28:29.285Z,46.23
2019-04-20T07:30:52.150Z,46.47
2019-04-20T07:33:27.010Z,48.53
2019-04-20T07:35:50.749Z,45.29
2019-04-20T07:40:56.185Z,40.53
2019-04-20T07:43:28.360Z,39.66
2019-04-20T07:46:02.766Z,41.09
2019-04-20T07:48:31.067Z,39.17
2019-04-20T07:50:56.843Z,40.75
2019-04-20T07:53:30.568Z,40.13
2019-04-20T07:56:09.172Z,38.64
2019-04-20T07:58:28.550Z,38.20
2019-04-20T08:01:23.555Z,39.00
2019-04-20T08:03:55.720Z,38.62
2019-04-20T08:06:17.468Z,37.77
2019-04-20T08:08:57.404Z,37.39
2019-04-20T08:11:27.256Z,37.76
2019-04-20T08:14:06.051Z,35.74
2019-04-20T08:19:05.284Z,37.08
2019-04-20T08:21:44.061Z,37.27
2019-04-20T08:24:07.037Z,37.18
2019-04-20T08:26:27.094Z,37.93
2019-04-20T08:29:18.822Z,35.78
2019-04-20T08:32:08.627Z,35.07
2019-04-20T08:34:45.313Z,36.56
2019-04-20T08:37:05.956Z,35.04
2019-04-20T08:39:53.893Z,31.82
2019-04-20T08:42:18.636Z,34.19
2019-04-20T08:47:30.550Z,32.98
2019-04-20T08:50:20.964Z,30.60
2019-04-20T08:55:19.888Z,30.53
2019-04-20T08:57:33.731Z,29.26
2019-04-20T09:00:06.573Z,30.30
2019-04-20T09:02:41.278Z,29.36
2019-04-20T09:05:29.505Z,30.62
2019-04-20T09:07:54.213Z,31.00
2019-04-20T09:10:40.775Z,30.00
2019-04-20T09:13:03.986Z,31.33
2019-04-20T09:15:21.139Z,29.90
2019-04-20T09:18:00.945Z,30.76
2019-04-20T09:20:41.249Z,28.34
2019-04-20T09:23:21.749Z,29.37
2019-04-20T09:26:09.121Z,28.67
2019-04-20T09:28:38.485Z,29.87
2019-04-20T09:31:20.196Z,28.07
2019-04-20T09:34:16.259Z,28.66
2019-04-20T09:36:51.618Z,27.92
2019-04-20T09:39:29.580Z,27.52
2019-04-20T09:42:01.218Z,27.57
2019-04-20T09:44:34.944Z,27.08
2019-04-20T09:47:03.290Z,28.01
2019-04-20T09:49:42.870Z,26.74
2019-04-20T09:52:17.255Z,26.61
2019-04-20T09:54:55.142Z,27.76
2019-04-20T09:57:32.243Z,27.88
2019-04-20T09:59:57.517Z,29.06
2019-04-20T10:02:21.274Z,26.90
2019-04-20T10:04:44.210Z,27.71
2019-04-20T10:07:18.001Z,26.57
2019-04-20T10:09:46.997Z,26.22
2019-04-20T10:12:17.607Z,25.53
2019-04-20T10:14:48.947Z,28.88
2019-04-20T10:17:20.109Z,28.70
2019-04-20T10:19:51.310Z,27.58
2019-04-20T10:22:22.564Z,24.61
2019-04-20T10:24:53.814Z,25.91
2019-04-20T10:27:24.333Z,25.91
2019-04-20T10:29:55.489Z,24.32
2019-04-20T10:32:36.283Z,25.21
2019-04-20T10:34:57.256Z,23.76
2019-04-20T10:37:31.553Z,23.86
2019-04-20T10:40:02.876Z,23.15
2019-04-20T10:42:32.683Z,23.61
2019-04-20T10:45:03.063Z,21.80
2019-04-20T10:47:34.939Z,23.63
2019-04-20T10:50:05.285Z,22.55
2019-04-20T10:52:36.067Z,22.77
2019-04-20T10:55:06.190Z,21.92
2019-04-20T10:57:37.599Z,20.79
2019-04-20T11:00:08.229Z,20.09
2019-04-20T11:02:39.603Z,19.28
2019-04-20T11:05:10.803Z,15.07
2019-04-20T11:07:40.865Z,14.76
2019-04-20T11:10:17.913Z,13.06
2019-04-20T11:12:42.220Z,11.01
2019-04-20T11:15:12.701Z,10.65
2019-04-20T11:17:43.550Z,10.20
2019-04-20T11:20:13.002Z,9.27
2019-04-20T11:22:42.215Z,10.14
2019-04-20T11:25:12.320Z,9.91
2019-04-20T11:27:41.191Z,9.38
2019-04-20T11:30:10.083Z,8.00
2019-04-20T11:32:40.105Z,8.26
2019-04-20T11:35:19.969Z,7.19
2019-04-20T11:37:40.502Z,6.67
2019-04-20T11:40:09.211Z,6.61
2019-04-20T11:42:37.880Z,6.14
2019-04-20T11:45:06.829Z,7.02
2019-04-20T11:47:35.710Z,7.21
2019-04-20T11:50:04.828Z,7.19
2019-04-20T11:52:38.848Z,6.96
2019-04-20T11:55:04.418Z,5.75
2019-04-20T11:57:33.535Z,5.72
2019-04-20T12:00:03.619Z,5.28
2019-04-20T12:02:44.360Z,5.72
2019-04-20T12:05:23.894Z,5.77
2019-04-20T12:07:53.658Z,5.25
2019-04-20T12:10:24.161Z,4.33
2019-04-20T12:12:55.418Z,4.97
2019-04-20T12:15:24.379Z,4.62
2019-04-20T12:17:53.692Z,4.33
2019-04-20T12:20:22.826Z,4.41
2019-04-20T12:22:52.617Z,4.36
2019-04-20T12:25:21.325Z,4.31
2019-04-20T12:27:54.048Z,4.52
2019-04-20T12:30:21.725Z,3.82
2019-04-20T12:32:55.496Z,3.82
2019-04-20T12:35:22.297Z,3.50
2019-04-20T12:37:51.434Z,3.61
2019-04-20T12:40:20.135Z,3.72
2019-04-20T12:42:50.850Z,3.84
2019-04-20T12:45:20.091Z,3.66
2019-04-20T12:47:51.422Z,3.12
2019-04-20T12:50:21.489Z,3.09
2019-04-20T12:52:50.391Z,3.47
2019-04-20T12:55:20.811Z,3.34
2019-04-20T12:57:50.324Z,2.82
2019-04-20T13:00:19.852Z,2.81
2019-04-20T13:02:49.468Z,2.62
2019-04-20T13:05:19.463Z,3.05
2019-04-20T13:07:54.528Z,2.49
2019-04-20T13:10:21.345Z,2.88
2019-04-20T13:13:10.259Z,2.37
2019-04-20T13:16:00.892Z,2.41
2019-04-20T13:18:39.185Z,1.92
2019-04-20T13:21:09.255Z,2.18
2019-04-20T13:23:38.240Z,2.24
2019-04-20T13:26:08.677Z,1.97
2019-04-20T13:28:37.852Z,1.69
2019-04-20T13:31:08.066Z,1.69
2019-04-20T13:33:37.060Z,1.79
2019-04-20T13:36:05.925Z,2.02
2019-04-20T13:38:36.185Z,1.93
2019-04-20T13:41:06.193Z,2.45
2019-04-20T13:43:35.537Z,1.97
2019-04-20T13:46:04.916Z,1.90
2019-04-20T13:48:34.895Z,2.00
2019-04-20T13:51:05.466Z,2.21
2019-04-20T13:53:35.576Z,2.18
2019-04-20T13:56:05.460Z,2.36
2019-04-20T13:58:45.689Z,2.17
2019-04-20T14:01:36.984Z,2.28
2019-04-20T14:04:15.142Z,2.08
2019-04-20T14:06:43.862Z,2.08
2019-04-20T14:09:12.571Z,1.95
2019-04-20T14:11:43.328Z,1.85
2019-04-20T14:14:13.119Z,1.61
2019-04-20T14:16:43.189Z,2.00
2019-04-20T14:19:14.256Z,2.00
2019-04-20T14:21:43.918Z,1.97
2019-04-20T14:24:13.099Z,2.04
2019-04-20T14:26:43.711Z,2.09
2019-04-20T14:29:12.795Z,2.00
2019-04-20T14:31:41.855Z,1.84
2019-04-20T14:34:10.976Z,1.93
2019-04-20T14:36:41.143Z,1.99
2019-04-20T14:39:10.161Z,1.75
2019-04-20T14:41:40.375Z,1.59
2019-04-20T14:44:10.325Z,1.75
2019-04-20T14:46:39.995Z,1.82
2019-04-20T14:49:10.444Z,1.63
2019-04-20T14:51:41.579Z,2.51
2019-04-20T14:54:11.740Z,3.47
2019-04-20T14:56:43.365Z,4.77
2019-04-20T14:59:29.470Z,5.72
2019-04-20T15:02:08.452Z,5.82
2019-04-20T15:04:37.400Z,6.66
2019-04-20T15:07:06.686Z,7.21
2019-04-20T15:09:38.728Z,8.10
2019-04-20T15:12:06.891Z,8.79
2019-04-20T15:14:36.762Z,9.07
2019-04-20T15:17:06.802Z,8.80
2019-04-20T15:19:41.369Z,9.24
2019-04-20T15:22:41.630Z,10.73
2019-04-20T15:25:11.623Z,9.60
2019-04-20T15:27:44.025Z,9.10
2019-04-20T15:30:12.109Z,9.71
2019-04-20T15:32:40.961Z,9.20
2019-04-20T15:35:11.010Z,9.25
2019-04-20T15:37:41.263Z,9.44
2019-04-20T15:40:10.921Z,9.33
2019-04-20T15:42:53.247Z,9.40
2019-04-20T15:45:11.445Z,9.95
2019-04-20T15:47:40.848Z,9.83
2019-04-20T15:50:09.723Z,9.88
2019-04-20T15:52:44.992Z,9.58
2019-04-20T15:55:19.687Z,9.58
2019-04-20T15:57:41.003Z,9.58
2019-04-20T16:00:10.894Z,7.73
2019-04-20T16:02:53.679Z,6.70
2019-04-20T16:05:40.882Z,6.75
2019-04-20T16:08:48.200Z,6.73
2019-04-20T16:11:17.402Z,7.59
2019-04-20T16:13:49.993Z,8.43
2019-04-20T16:16:16.869Z,8.07
2019-04-20T16:18:46.698Z,7.45
2019-04-20T16:21:22.370Z,6.48
2019-04-20T16:23:56.929Z,6.87
2019-04-20T16:26:37.710Z,7.58
2019-04-20T16:29:08.077Z,8.09
2019-04-20T16:31:38.316Z,9.16
2019-04-20T16:34:07.626Z,8.20
2019-04-20T16:36:36.711Z,8.21
2019-04-20T16:39:09.037Z,8.68
2019-04-20T16:41:38.571Z,8.51
2019-04-20T16:44:07.330Z,8.06
2019-04-20T16:46:38.325Z,7.85
2019-04-20T16:49:08.433Z,7.81
2019-04-20T16:51:37.255Z,8.61
2019-04-20T16:54:05.994Z,9.44
2019-04-20T16:56:35.035Z,9.98
2019-04-20T16:59:07.067Z,9.83
2019-04-20T17:01:35.260Z,10.42
2019-04-20T17:04:10.703Z,10.97
2019-04-20T17:06:35.994Z,11.54
2019-04-20T17:09:07.013Z,11.89
2019-04-20T17:11:36.281Z,11.91
2019-04-20T17:14:06.519Z,11.53
2019-04-20T17:16:35.609Z,11.77
2019-04-20T17:19:05.832Z,11.80
2019-04-20T17:21:37.233Z,11.63
2019-04-20T17:24:07.197Z,11.48
2019-04-20T17:26:48.405Z,12.13
2019-04-20T17:29:23.932Z,12.90
2019-04-20T17:32:03.153Z,13.07
2019-04-20T17:34:46.877Z,13.99
2019-04-20T17:37:02.405Z,14.59
2019-04-20T17:39:40.875Z,15.30
2019-04-20T17:42:17.266Z,16.47
2019-04-20T17:44:47.295Z,16.48
2019-04-20T17:47:21.512Z,17.68
2019-04-20T17:49:51.576Z,18.86
2019-04-20T17:52:27.710Z,18.85
2019-04-20T17:54:47.916Z,18.61
2019-04-20T17:57:17.249Z,19.09
2019-04-20T17:59:53.259Z,20.06
2019-04-20T18:02:58.950Z,20.11
2019-04-20T18:05:49.868Z,20.46
2019-04-20T18:08:22.083Z,21.68
2019-04-20T18:10:47.507Z,21.36
2019-04-20T18:13:13.734Z,20.34
2019-04-20T18:15:49.091Z,20.36
2019-04-20T18:18:40.885Z,20.28
2019-04-20T18:21:18.992Z,20.43
2019-04-20T18:23:51.674Z,20.56
2019-04-20T18:26:42.978Z,20.96
2019-04-20T18:29:14.968Z,21.01
2019-04-20T18:31:37.511Z,21.66
2019-04-20T18:34:20.277Z,21.71
2019-04-20T18:36:48.241Z,21.63
2019-04-20T18:39:27.690Z,21.87
2019-04-20T18:41:56.694Z,21.93
2019-04-20T18:44:27.950Z,21.99
2019-04-20T18:47:30.180Z,22.37
2019-04-20T18:49:38.574Z,22.25
2019-04-20T18:51:57.764Z,22.76
2019-04-20T18:54:32.898Z,23.00
2019-04-20T18:57:01.280Z,23.23
2019-04-20T18:59:40.560Z,23.62
2019-04-20T19:02:06.803Z,23.97
2019-04-20T19:04:37.581Z,23.70
2019-04-20T19:07:07.915Z,23.62
2019-04-20T19:09:39.114Z,23.72
2019-04-20T19:12:12.692Z,24.25
2019-04-20T19:15:28.078Z,24.47
2019-04-20T19:18:17.312Z,24.85
2019-04-20T19:20:43.494Z,25.29
2019-04-20T19:23:14.646Z,25.78
2019-04-20T19:25:45.778Z,25.80
2019-04-20T19:28:21.611Z,26.55
2019-04-20T19:31:00.073Z,26.55
2019-04-20T19:33:34.247Z,26.71
2019-04-20T19:36:04.801Z,26.60
2019-04-20T19:38:35.300Z,26.64
2019-04-20T19:41:07.072Z,26.77
2019-04-20T19:43:36.165Z,26.90
2019-04-20T19:46:35.573Z,27.50
2019-04-20T19:48:40.592Z,34.32
2019-04-20T19:51:24.042Z,35.13
2019-04-20T19:53:56.895Z,30.34
2019-04-20T19:56:16.625Z,29.52
2019-04-20T19:58:53.709Z,29.96
2019-04-20T20:01:09.303Z,29.76
2019-04-20T20:03:39.608Z,29.44
2019-04-20T20:06:13.154Z,30.06
2019-04-20T20:08:43.455Z,29.72
2019-04-20T20:11:20.944Z,29.83
2019-04-20T20:13:48.559Z,29.94
2019-04-20T20:16:23.530Z,31.13
2019-04-20T20:18:59.872Z,30.69
2019-04-20T20:21:28.723Z,30.94
2019-04-20T20:23:50.309Z,31.33
2019-04-20T20:26:29.026Z,32.22
2019-04-20T20:29:03.509Z,33.45
2019-04-20T20:31:37.815Z,33.45
2019-04-20T20:34:09.681Z,34.25
2019-04-20T20:36:38.325Z,34.90
2019-04-20T20:39:04.501Z,35.16
2019-04-20T20:41:46.711Z,35.38
2019-04-20T20:44:14.005Z,34.98
2019-04-20T20:46:48.754Z,35.89
2019-04-20T20:49:29.576Z,35.51
2019-04-20T20:51:54.548Z,35.51
2019-04-20T20:54:25.750Z,36.33
2019-04-20T20:56:49.946Z,37.02
2019-04-20T20:59:27.532Z,37.38
2019-04-20T21:01:55.254Z,37.38
2019-04-20T21:04:17.515Z,38.28
2019-04-20T21:06:48.625Z,39.03
2019-04-20T21:09:18.613Z,40.17
2019-04-20T21:11:51.126Z,40.20
2019-04-20T21:14:26.102Z,41.26
2019-04-20T21:17:01.317Z,43.11
2019-04-20T21:19:42.002Z,45.21
2019-04-20T21:22:02.800Z,45.92
2019-04-20T21:24:33.626Z,49.91
2019-04-20T21:27:07.891Z,49.65
2019-04-20T21:29:41.419Z,55.92
2019-04-20T21:32:10.894Z,60.35
2019-04-20T21:34:44.446Z,60.35
2019-04-20T21:37:12.708Z,57.76
2019-04-20T21:39:46.569Z,60.39
2019-04-20T21:42:19.090Z,65.37
2019-04-20T21:44:48.185Z,69.34
2019-04-20T21:47:22.278Z,73.73
2019-04-20T21:49:57.837Z,75.52
2019-04-20T21:52:27.191Z,80.25
2019-04-20T21:54:49.982Z,80.43
2019-04-20T21:57:20.132Z,73.18
2019-04-20T21:59:53.596Z,75.07
2019-04-20T22:02:28.514Z,80.04
2019-04-20T22:04:53.523Z,81.05
2019-04-20T22:07:23.685Z,81.32
2019-04-20T22:09:55.375Z,81.35
2019-04-20T22:12:28.532Z,86.62
2019-04-20T22:15:03.958Z,84.89
2019-04-20T22:17:30.949Z,86.44
2019-04-20T22:20:12.103Z,90.89
2019-04-20T22:22:46.896Z,88.84
2019-04-20T22:25:23.523Z,91.69
2019-04-20T22:27:35.203Z,92.86
2019-04-20T22:30:06.475Z,89.35
2019-04-20T22:32:42.642Z,88.36
2019-04-20T22:35:13.469Z,88.20
2019-04-20T22:37:47.765Z,81.82
2019-04-20T22:40:23.450Z,79.98
2019-04-20T22:42:54.313Z,80.51
2019-04-20T22:45:21.215Z,83.11
2019-04-20T22:47:54.979Z,85.75
2019-04-20T22:50:38.260Z,81.16
2019-04-20T22:53:12.238Z,74.60
2019-04-20T22:55:47.799Z,71.37
2019-04-20T22:58:03.263Z,72.24
2019-04-20T23:00:38.662Z,68.66
2019-04-20T23:03:00.843Z,68.08
2019-04-20T23:05:31.006Z,72.57
2019-04-20T23:08:00.794Z,76.24
2019-04-20T23:10:34.726Z,76.35
2019-04-20T23:13:03.127Z,75.79
2019-04-20T23:15:34.205Z,73.68
2019-04-20T23:18:04.314Z,71.50
2019-04-20T23:20:38.713Z,68.58
2019-04-20T23:23:11.093Z,69.07
2019-04-20T23:25:39.050Z,68.21
2019-04-20T23:28:11.440Z,70.12
2019-04-20T23:30:42.299Z,79.86
2019-04-20T23:33:11.880Z,77.50
2019-04-20T23:35:43.766Z,75.36
2019-04-20T23:38:18.017Z,74.67
2019-04-20T23:40:45.819Z,73.25
2019-04-20T23:43:24.993Z,74.36
2019-04-20T23:46:19.406Z,84.31
2019-04-20T23:48:52.096Z,84.35
2019-04-20T23:51:41.834Z,83.24
2019-04-20T23:54:04.687Z,83.50
2019-04-20T23:56:25.560Z,88.64
2019-04-20T23:58:58.098Z,90.47
